Terminal Aerodrome Forecast
Issued by NWS Charleston, WV

Current Version | Previous Version | Graphics & Text | Print | Product List | Glossary On
Versions: 1 2 3 4 5 6 7 8 9 10 11 12 13 14 15 16 17 18 19 20 21
094
FTUS41 KRLX 030538
TAFEKN
TAF
KEKN 030538Z 0306/0406 17018G29KT P6SM BKN070
      TEMPO 0306/0307 -SHRA
     FM031100 18019G31KT 4SM SHRA OVC035
     FM031300 18017G29KT 3SM SHRA OVC025
     FM031700 20010G17KT 5SM SHRA OVC015
     FM031900 21010G17KT P6SM BKN050
     FM040100 24009G15KT P6SM SCT050=

USA.gov is the U.S. government's official web portal to all federal, state and local government web resources and services.